Time;durP1;ratioP1;P1;durP2;ratioP2;P2;SDS_P1;SDS_P2;PMS_P1;PMS_P2;Temp;Humidity;BMP_temperature;BMP_pressure;BME280_temperature;BME280_humidity;BME280_pressure;Samples;Min_cycle;Max_cycle;Signal;HPM_P1;HPM_P2
2021/01/17 00:02:07;;;;;;;12.47;8.37;;;7.60;99.90;;;;;;4935140;29;20311;-87
2021/01/17 00:04:38;;;;;;;14.83;8.80;;;7.60;99.90;;;;;;4944576;29;20205;-88
2021/01/17 00:07:11;;;;;;;12.90;8.17;;;7.70;99.90;;;;;;4945981;29;20211;-86
2021/01/17 00:09:46;;;;;;;13.80;9.00;;;7.60;99.90;;;;;;4939843;29;20235;-88
2021/01/17 00:12:17;;;;;;;19.53;11.30;;;7.60;99.90;;;;;;4942956;29;20262;-87
2021/01/17 00:14:51;;;;;;;12.37;9.50;;;7.50;99.90;;;;;;4945995;29;20225;-89
2021/01/17 00:17:21;;;;;;;16.70;9.17;;;7.50;99.90;;;;;;4944812;29;20204;-93
2021/01/17 00:19:53;;;;;;;17.93;9.40;;;7.50;99.90;;;;;;4942414;29;20237;-92
2021/01/17 00:22:28;;;;;;;12.03;8.80;;;7.50;99.90;;;;;;4949519;29;20641;-93
2021/01/17 00:24:59;;;;;;;15.93;9.07;;;7.50;99.90;;;;;;4950928;29;20357;-91
2021/01/17 00:27:30;;;;;;;14.57;8.77;;;7.50;99.90;;;;;;4949063;29;20230;-93
2021/01/17 00:30:04;;;;;;;13.90;9.50;;;7.50;99.90;;;;;;4944751;29;20294;-93
2021/01/17 00:32:35;;;;;;;12.43;9.30;;;7.40;99.90;;;;;;4945896;29;20206;-93
2021/01/17 00:35:08;;;;;;;15.23;10.10;;;7.50;99.90;;;;;;4950243;29;20248;-94
2021/01/17 00:37:39;;;;;;;13.80;9.13;;;7.40;99.90;;;;;;4943887;29;20207;-91
2021/01/17 00:40:14;;;;;;;11.93;9.00;;;7.40;99.90;;;;;;4944551;29;20203;-93
2021/01/17 00:42:49;;;;;;;13.27;9.00;;;7.40;99.90;;;;;;4938319;29;20209;-93
2021/01/17 00:45:26;;;;;;;11.27;7.93;;;7.40;99.90;;;;;;4943674;29;20201;-92
2021/01/17 00:48:01;;;;;;;13.80;8.90;;;7.30;99.90;;;;;;4945237;29;20271;-93
2021/01/17 00:50:32;;;;;;;14.73;9.00;;;7.30;99.90;;;;;;4952153;28;20195;-92
2021/01/17 00:53:07;;;;;;;14.63;9.43;;;7.20;99.90;;;;;;4946377;29;20200;-93
2021/01/17 00:55:39;;;;;;;15.20;9.97;;;7.20;99.90;;;;;;4934907;29;20246;-92
2021/01/17 00:58:11;;;;;;;13.63;9.13;;;7.20;99.90;;;;;;4929499;29;20701;-92
2021/01/17 01:00:44;;;;;;;14.83;8.93;;;7.10;99.90;;;;;;4932539;29;20212;-93
2021/01/17 01:03:14;;;;;;;16.07;10.03;;;7.10;99.90;;;;;;4929327;29;20225;-92
2021/01/17 01:05:46;;;;;;;17.83;9.53;;;7.10;99.90;;;;;;4928463;29;20200;-93
2021/01/17 01:08:17;;;;;;;14.33;9.33;;;7.10;99.90;;;;;;4926190;29;20248;-92
2021/01/17 01:10:48;;;;;;;15.43;10.60;;;7.10;99.90;;;;;;4928617;29;20280;-87
2021/01/17 01:13:23;;;;;;;13.47;10.10;;;7.00;99.90;;;;;;4926212;29;20210;-89
2021/01/17 01:15:59;;;;;;;14.53;10.13;;;6.90;99.90;;;;;;4927243;28;20253;-89
2021/01/17 01:23:50;;;;;;;16.90;10.00;;;6.80;99.90;;;;;;4983706;23;20271;-88
2021/01/17 01:26:24;;;;;;;16.73;10.67;;;6.80;99.90;;;;;;4975847;28;20242;-86
2021/01/17 01:28:57;;;;;;;20.30;13.17;;;6.80;99.90;;;;;;4978900;28;20809;-87
2021/01/17 01:31:33;;;;;;;20.03;13.60;;;6.80;99.90;;;;;;4968326;28;20225;-89
2021/01/17 01:34:09;;;;;;;19.73;13.00;;;6.80;99.90;;;;;;4970758;28;20198;-89
2021/01/17 01:36:44;;;;;;;16.40;11.80;;;6.80;99.90;;;;;;4984470;28;20181;-87
2021/01/17 01:39:24;;;;;;;16.20;11.77;;;6.80;99.90;;;;;;4999289;23;20205;-88
2021/01/17 01:42:09;;;;;;;19.17;11.40;;;6.80;99.90;;;;;;4961897;23;20275;-87
2021/01/17 01:44:51;;;;;;;19.83;12.40;;;6.80;99.90;;;;;;4980003;28;20188;-87
2021/01/17 01:47:32;;;;;;;19.70;12.07;;;6.70;99.90;;;;;;4989635;28;20207;-87
2021/01/17 01:50:04;;;;;;;16.03;11.80;;;6.70;99.90;;;;;;5018022;23;20273;-87
2021/01/17 01:52:38;;;;;;;24.57;14.50;;;6.60;99.90;;;;;;4954507;29;20221;-86
2021/01/17 01:55:10;;;;;;;26.83;15.83;;;6.60;99.90;;;;;;4954266;29;20577;-85
2021/01/17 01:57:42;;;;;;;65.47;25.13;;;6.60;99.90;;;;;;4925349;29;20208;-86
2021/01/17 02:00:18;;;;;;;28.67;18.33;;;6.60;99.90;;;;;;4922622;29;20203;-87
2021/01/17 02:02:58;;;;;;;26.87;17.23;;;6.50;99.90;;;;;;4921533;29;20189;-88
2021/01/17 02:05:29;;;;;;;26.47;17.03;;;6.50;99.90;;;;;;4923025;29;20227;-86
2021/01/17 02:10:30;;;;;;;22.60;14.47;;;6.40;99.90;;;;;;4959022;28;20232;-88
2021/01/17 02:13:08;;;;;;;23.60;14.17;;;6.40;99.90;;;;;;4960816;28;20187;-89
2021/01/17 02:15:41;;;;;;;21.57;13.27;;;6.30;99.90;;;;;;4952414;28;20196;-89
2021/01/17 02:18:15;;;;;;;21.07;14.83;;;6.30;99.90;;;;;;4953179;29;20248;-88
2021/01/17 02:20:49;;;;;;;31.53;15.63;;;6.20;99.90;;;;;;4943998;29;20264;-88
2021/01/17 02:23:27;;;;;;;24.50;14.10;;;6.10;99.90;;;;;;4948259;29;20234;-89
2021/01/17 02:26:02;;;;;;;24.00;13.30;;;6.10;99.90;;;;;;4953735;29;20224;-89
2021/01/17 02:28:34;;;;;;;16.70;11.73;;;6.00;99.90;;;;;;4951429;28;20241;-88
2021/01/17 02:31:11;;;;;;;23.03;12.40;;;5.90;99.90;;;;;;4951118;28;20248;-91
2021/01/17 02:43:35;;;;;;;20.53;12.70;;;6.00;99.90;;;;;;4950501;28;20224;-92
2021/01/17 02:46:07;;;;;;;18.90;12.40;;;6.00;99.90;;;;;;4951009;28;20200;-92
2021/01/17 02:48:38;;;;;;;17.73;12.37;;;6.10;99.90;;;;;;4941792;29;20220;-92
2021/01/17 02:51:12;;;;;;;18.53;12.93;;;6.20;99.90;;;;;;4930235;29;20217;-93
2021/01/17 02:53:46;;;;;;;25.27;15.17;;;6.10;99.90;;;;;;4944783;29;20231;-90
2021/01/17 02:56:28;;;;;;;26.63;16.50;;;6.00;99.90;;;;;;4938488;29;20576;-94
2021/01/17 03:02:23;;;;;;;20.17;13.57;;;6.20;99.90;;;;;;4927945;29;20205;-93
2021/01/17 03:05:00;;;;;;;19.93;13.47;;;6.20;99.90;;;;;;4932324;29;20220;-91
2021/01/17 03:07:36;;;;;;;19.30;13.67;;;6.20;99.90;;;;;;4938056;29;20224;-92
2021/01/17 03:19:14;;;;;;;21.83;13.93;;;6.20;99.90;;;;;;4923089;29;20218;-93
2021/01/17 03:21:46;;;;;;;17.67;13.00;;;6.10;99.90;;;;;;4924509;29;20344;-91
2021/01/17 03:24:18;;;;;;;17.77;13.80;;;6.10;99.90;;;;;;4925057;29;20197;-92
2021/01/17 03:26:52;;;;;;;17.47;13.03;;;6.20;99.90;;;;;;4920040;29;20406;-93
2021/01/17 03:29:26;;;;;;;20.73;12.93;;;6.20;99.90;;;;;;4926591;29;20308;-94
2021/01/17 03:31:59;;;;;;;16.97;12.10;;;6.20;99.90;;;;;;4927559;29;20193;-94
2021/01/17 03:34:32;;;;;;;18.37;13.73;;;6.20;99.90;;;;;;4921755;29;20228;-89
2021/01/17 03:37:04;;;;;;;17.67;12.37;;;6.20;99.90;;;;;;4928026;29;20196;-92
2021/01/17 03:45:01;;;;;;;18.37;11.60;;;6.20;99.90;;;;;;4647569;28;10001943;-90
2021/01/17 03:47:33;;;;;;;17.20;12.20;;;6.20;99.90;;;;;;4983912;28;20272;-92
2021/01/17 03:50:05;;;;;;;16.80;12.40;;;6.30;99.90;;;;;;4972896;28;20262;-89
2021/01/17 03:52:37;;;;;;;19.23;12.40;;;6.30;99.90;;;;;;4958235;29;20208;-89
2021/01/17 03:55:09;;;;;;;19.13;13.33;;;6.30;99.90;;;;;;4944544;29;20211;-87
2021/01/17 03:57:42;;;;;;;17.73;13.17;;;6.30;99.90;;;;;;4946212;29;20208;-87
2021/01/17 04:00:13;;;;;;;18.73;12.50;;;6.30;99.90;;;;;;4967185;28;20191;-86
2021/01/17 04:02:45;;;;;;;16.27;11.97;;;6.40;99.90;;;;;;4967596;28;20290;-87
2021/01/17 04:05:17;;;;;;;16.93;11.57;;;6.40;99.90;;;;;;4959623;29;20411;-89
2021/01/17 04:07:48;;;;;;;21.10;11.53;;;6.30;99.90;;;;;;4955740;29;20239;-87
2021/01/17 04:10:28;;;;;;;17.23;11.70;;;6.40;99.90;;;;;;4957419;28;20235;-90
2021/01/17 04:12:57;;;;;;;13.63;9.77;;;6.40;99.90;;;;;;4955539;29;20267;-87
2021/01/17 04:15:33;;;;;;;13.77;10.97;;;6.40;99.90;;;;;;4953735;29;20209;-93
2021/01/17 04:18:18;;;;;;;13.97;10.60;;;6.40;99.90;;;;;;4953036;29;20202;-89
2021/01/17 04:20:51;;;;;;;18.07;11.50;;;6.50;99.90;;;;;;4951937;28;20261;-94
2021/01/17 04:23:23;;;;;;;16.70;10.90;;;6.50;99.90;;;;;;4969067;29;20231;-92
2021/01/17 04:25:54;;;;;;;15.80;10.47;;;6.40;99.90;;;;;;4958263;29;20203;-91
2021/01/17 04:28:25;;;;;;;15.17;10.17;;;6.50;99.90;;;;;;4954256;29;20203;-89
2021/01/17 04:30:56;;;;;;;14.23;9.33;;;6.50;99.90;;;;;;4957283;29;20668;-91
2021/01/17 04:49:23;;;;;;;14.27;9.50;;;6.60;99.90;;;;;;4963026;29;20215;-94
2021/01/17 04:52:15;;;;;;;14.63;10.00;;;6.60;99.90;;;;;;4956175;29;20231;-94
2021/01/17 04:58:15;;;;;;;36.63;14.97;;;6.50;99.90;;;;;;4964187;29;20243;-96
2021/01/17 05:16:08;;;;;;;19.57;11.63;;;6.60;99.90;;;;;;4961290;28;20200;-95
2021/01/17 05:18:51;;;;;;;23.77;13.20;;;6.60;99.90;;;;;;4964942;29;20288;-95
2021/01/17 05:31:25;;;;;;;14.87;10.57;;;6.60;99.90;;;;;;4954664;29;20215;-92
2021/01/17 05:33:58;;;;;;;16.87;11.13;;;6.60;99.90;;;;;;4953736;29;20676;-93
2021/01/17 05:36:28;;;;;;;17.50;10.70;;;6.60;99.90;;;;;;4956750;29;20215;-91
2021/01/17 05:39:03;;;;;;;18.07;11.50;;;6.60;99.90;;;;;;4955522;29;20542;-93
2021/01/17 05:41:34;;;;;;;16.23;10.93;;;6.60;99.90;;;;;;4955478;29;20209;-96
2021/01/17 05:44:05;;;;;;;17.03;12.10;;;6.60;99.90;;;;;;4956635;29;20243;-93
2021/01/17 05:49:50;;;;;;;16.93;10.87;;;6.50;99.90;;;;;;4959769;29;20231;-93
2021/01/17 05:52:22;;;;;;;17.30;11.93;;;6.50;99.90;;;;;;4955754;29;20315;-94
2021/01/17 05:54:53;;;;;;;18.03;11.80;;;6.50;99.90;;;;;;4954342;29;20209;-93
2021/01/17 06:00:34;;;;;;;14.40;10.27;;;6.50;99.90;;;;;;4974891;28;20215;-94
2021/01/17 06:03:36;;;;;;;14.50;10.47;;;6.60;99.90;;;;;;4968211;28;20200;-94
2021/01/17 06:06:08;;;;;;;18.53;9.77;;;6.60;99.90;;;;;;4973217;28;20190;-93
2021/01/17 06:08:41;;;;;;;16.07;10.57;;;6.50;99.90;;;;;;4961615;29;20278;-93
2021/01/17 06:11:14;;;;;;;14.87;9.93;;;6.50;99.90;;;;;;4956719;29;20297;-92
2021/01/17 06:13:55;;;;;;;13.50;10.10;;;6.60;99.90;;;;;;4964423;29;20244;-91
2021/01/17 06:16:33;;;;;;;13.93;10.03;;;6.60;99.90;;;;;;4956017;29;20235;-90
2021/01/17 06:19:09;;;;;;;14.90;10.17;;;6.60;99.90;;;;;;4957081;28;20215;-93
2021/01/17 06:21:41;;;;;;;13.60;10.20;;;6.50;99.90;;;;;;4967347;29;20266;-93
2021/01/17 06:24:12;;;;;;;13.57;9.37;;;6.50;99.90;;;;;;4965023;29;20214;-92
2021/01/17 06:26:46;;;;;;;13.63;10.00;;;6.50;99.90;;;;;;4966649;28;20271;-91
2021/01/17 06:29:17;;;;;;;18.20;10.53;;;6.50;99.90;;;;;;4965891;28;20227;-92
2021/01/17 06:31:48;;;;;;;17.63;11.20;;;6.50;99.90;;;;;;4961793;28;20204;-91
2021/01/17 06:34:22;;;;;;;18.80;10.73;;;6.50;99.90;;;;;;4960276;29;20278;-91
2021/01/17 06:36:56;;;;;;;15.40;9.80;;;6.50;99.90;;;;;;4954529;29;20235;-92
2021/01/17 06:39:28;;;;;;;15.20;10.20;;;6.60;99.90;;;;;;4951833;29;20205;-92
2021/01/17 06:42:02;;;;;;;14.73;9.40;;;6.60;99.90;;;;;;4957740;29;20238;-94
2021/01/17 06:44:34;;;;;;;14.43;9.20;;;6.70;99.90;;;;;;4960203;29;20219;-87
2021/01/17 06:47:04;;;;;;;12.97;9.27;;;6.60;99.90;;;;;;4956625;28;20714;-88
2021/01/17 06:49:39;;;;;;;16.70;10.07;;;6.50;99.90;;;;;;4953589;28;20567;-88
2021/01/17 06:52:10;;;;;;;15.77;9.27;;;6.50;99.90;;;;;;4958187;29;20186;-87
2021/01/17 06:54:57;;;;;;;14.17;10.00;;;6.60;99.90;;;;;;4963565;29;20250;-89
2021/01/17 06:57:43;;;;;;;14.30;9.50;;;6.50;99.90;;;;;;4951070;28;20295;-87
2021/01/17 07:00:23;;;;;;;15.53;9.37;;;6.50;99.90;;;;;;4950535;29;20231;-89
2021/01/17 07:02:55;;;;;;;12.07;8.37;;;6.50;99.90;;;;;;4957319;28;20226;-88
2021/01/17 07:06:12;;;;;;;12.97;9.00;;;6.50;99.90;;;;;;4956070;29;20236;-86
2021/01/17 07:09:01;;;;;;;16.47;10.90;;;6.60;99.90;;;;;;4955956;29;20214;-87
2021/01/17 07:12:01;;;;;;;18.23;9.90;;;6.50;99.90;;;;;;4956664;28;20311;-88
2021/01/17 07:14:42;;;;;;;12.77;9.20;;;6.50;99.90;;;;;;4958381;29;20285;-86
2021/01/17 07:17:27;;;;;;;15.37;9.53;;;6.50;99.90;;;;;;4957129;29;20218;-90
2021/01/17 07:20:13;;;;;;;13.63;8.60;;;6.60;99.90;;;;;;4939036;28;20207;-88
2021/01/17 07:22:48;;;;;;;15.93;9.40;;;6.60;99.90;;;;;;4954739;29;20258;-89
2021/01/17 07:25:23;;;;;;;13.50;8.83;;;6.50;99.90;;;;;;4945138;29;20220;-87
2021/01/17 07:28:11;;;;;;;14.47;8.57;;;6.50;99.90;;;;;;4954586;29;20203;-89
2021/01/17 07:30:54;;;;;;;11.37;8.30;;;6.50;99.90;;;;;;4960239;28;20235;-88
2021/01/17 07:33:35;;;;;;;12.67;8.70;;;6.50;99.90;;;;;;4959085;29;20287;-88
2021/01/17 07:36:12;;;;;;;18.27;8.67;;;6.60;99.90;;;;;;4971169;28;20234;-88
2021/01/17 07:38:46;;;;;;;22.30;10.23;;;6.60;99.90;;;;;;4972162;28;20258;-88
2021/01/17 07:41:18;;;;;;;13.27;8.07;;;6.60;99.90;;;;;;4973783;28;20231;-87
2021/01/17 07:43:50;;;;;;;17.80;9.63;;;6.70;99.90;;;;;;4962639;28;20215;-87
2021/01/17 07:46:21;;;;;;;11.70;7.43;;;6.60;99.90;;;;;;4961873;29;20214;-88
2021/01/17 07:48:52;;;;;;;9.63;7.00;;;6.70;99.90;;;;;;4966801;29;20209;-88
2021/01/17 07:51:22;;;;;;;18.73;9.23;;;6.70;99.90;;;;;;4957956;29;20717;-88
2021/01/17 07:54:02;;;;;;;12.87;7.60;;;6.70;99.90;;;;;;4956341;29;20235;-87
2021/01/17 08:05:53;;;;;;;10.80;6.30;;;6.70;99.90;;;;;;4951302;29;20219;-87
2021/01/17 08:08:55;;;;;;;5.83;3.40;;;6.70;99.90;;;;;;4948038;29;20931;-87
2021/01/17 08:11:47;;;;;;;8.50;5.50;;;6.80;99.90;;;;;;4952165;29;20203;-87
2021/01/17 08:14:19;;;;;;;8.60;5.80;;;6.80;99.90;;;;;;4952675;29;20209;-87
2021/01/17 08:17:10;;;;;;;9.27;6.27;;;6.80;99.90;;;;;;4957819;29;20204;-88
2021/01/17 08:19:44;;;;;;;12.93;7.53;;;6.80;99.90;;;;;;4945450;29;20283;-88
2021/01/17 08:22:48;;;;;;;9.27;4.30;;;6.80;99.90;;;;;;4939535;29;20209;-87
2021/01/17 08:25:58;;;;;;;5.57;3.13;;;6.80;99.90;;;;;;4938023;28;20204;-89
2021/01/17 08:28:38;;;;;;;8.83;4.17;;;6.90;99.90;;;;;;4944746;28;20200;-87
2021/01/17 08:31:43;;;;;;;7.87;4.40;;;6.90;99.90;;;;;;4950736;28;20234;-88
2021/01/17 08:34:25;;;;;;;7.47;3.87;;;6.90;99.90;;;;;;4925675;29;20290;-87
2021/01/17 08:37:17;;;;;;;7.87;3.60;;;6.90;99.90;;;;;;4934556;29;20206;-87
2021/01/17 08:39:51;;;;;;;5.57;3.30;;;6.80;99.90;;;;;;4933009;29;20247;-88
2021/01/17 08:42:32;;;;;;;8.73;4.23;;;6.80;99.90;;;;;;4937296;29;20271;-86
2021/01/17 08:45:04;;;;;;;4.67;3.10;;;6.80;99.90;;;;;;4946498;29;20294;-87
2021/01/17 08:47:38;;;;;;;6.43;3.90;;;6.80;99.90;;;;;;4925492;29;20223;-89
2021/01/17 08:50:27;;;;;;;138.07;38.27;;;6.70;99.90;;;;;;4940168;29;20309;-87
2021/01/17 08:53:08;;;;;;;39.47;11.77;;;6.70;99.90;;;;;;4944461;28;20702;-86
2021/01/17 08:55:44;;;;;;;10.27;4.97;;;6.60;99.90;;;;;;4939691;29;20497;-86
2021/01/17 08:58:18;;;;;;;23.27;8.33;;;6.60;99.90;;;;;;4940763;29;20239;-88
2021/01/17 09:01:07;;;;;;;57.23;15.70;;;6.50;99.90;;;;;;4924948;29;20267;-87
2021/01/17 09:03:40;;;;;;;31.27;8.43;;;6.50;99.90;;;;;;4943306;29;20227;-87
2021/01/17 09:06:29;;;;;;;37.63;10.13;;;6.50;99.90;;;;;;4938621;29;20209;-88
2021/01/17 09:09:09;;;;;;;18.20;6.47;;;6.50;99.90;;;;;;4927706;29;20232;-86
2021/01/17 09:11:41;;;;;;;18.70;6.70;;;6.40;99.90;;;;;;4929102;29;20216;-86
2021/01/17 09:14:14;;;;;;;8.10;4.87;;;6.40;99.90;;;;;;4932125;29;20299;-87
2021/01/17 09:16:49;;;;;;;4.97;3.60;;;6.40;99.90;;;;;;4936022;29;20212;-87
2021/01/17 09:19:21;;;;;;;18.07;6.93;;;6.40;99.90;;;;;;4929994;29;20204;-87
2021/01/17 09:21:56;;;;;;;7.07;4.00;;;6.40;99.90;;;;;;4916267;29;20267;-88
2021/01/17 09:24:28;;;;;;;11.03;4.43;;;6.40;99.90;;;;;;4929626;29;20697;-88
2021/01/17 09:27:04;;;;;;;26.17;8.83;;;6.40;99.90;;;;;;4933621;29;20212;-87
2021/01/17 09:29:37;;;;;;;16.03;6.83;;;6.40;99.90;;;;;;4929030;29;20240;-87
2021/01/17 09:32:12;;;;;;;6.30;3.60;;;6.40;99.90;;;;;;4931369;29;20213;-86
2021/01/17 09:34:45;;;;;;;11.17;4.67;;;6.40;99.90;;;;;;4934112;29;20215;-86
2021/01/17 09:37:17;;;;;;;6.93;4.40;;;6.40;99.90;;;;;;4928846;29;20263;-87
2021/01/17 09:39:49;;;;;;;8.90;4.37;;;6.40;99.90;;;;;;4932775;29;20234;-86
2021/01/17 09:42:23;;;;;;;13.20;5.60;;;6.40;99.90;;;;;;4933507;29;20243;-87
2021/01/17 09:44:55;;;;;;;17.47;6.63;;;6.40;99.90;;;;;;4932306;29;20279;-87
2021/01/17 09:47:28;;;;;;;8.67;4.90;;;6.50;99.90;;;;;;4935100;29;20240;-87
2021/01/17 09:50:08;;;;;;;15.20;7.13;;;6.50;99.90;;;;;;4934008;29;20221;-87
2021/01/17 09:52:42;;;;;;;11.07;5.10;;;6.50;99.90;;;;;;4930989;29;20209;-87
2021/01/17 09:55:15;;;;;;;10.53;5.30;;;6.50;99.90;;;;;;4928522;29;20222;-87
2021/01/17 09:57:45;;;;;;;5.87;4.07;;;6.50;99.90;;;;;;4933488;29;20263;-86
2021/01/17 10:00:20;;;;;;;9.83;4.93;;;6.60;99.90;;;;;;4935113;29;20298;-88
2021/01/17 10:02:55;;;;;;;8.03;4.47;;;6.60;99.90;;;;;;4935133;29;20253;-87
2021/01/17 10:05:29;;;;;;;13.93;6.13;;;6.60;99.90;;;;;;4917209;29;20244;-87
2021/01/17 10:08:01;;;;;;;16.37;8.00;;;6.60;99.90;;;;;;4934758;29;20242;-87
2021/01/17 10:10:32;;;;;;;19.23;8.87;;;6.60;99.90;;;;;;4935792;29;20674;-87
2021/01/17 10:13:02;;;;;;;23.03;10.67;;;6.60;99.90;;;;;;4936368;29;20204;-88
2021/01/17 10:15:39;;;;;;;10.63;5.83;;;6.50;99.90;;;;;;4926252;29;20204;-88
2021/01/17 10:18:15;;;;;;;12.50;5.63;;;6.50;99.90;;;;;;4946037;29;20192;-87
2021/01/17 10:20:46;;;;;;;15.43;6.80;;;6.50;99.90;;;;;;4941993;29;20270;-87
2021/01/17 10:23:18;;;;;;;7.33;4.67;;;6.50;99.90;;;;;;4927626;29;20217;-86
2021/01/17 10:25:49;;;;;;;9.40;5.23;;;6.50;99.90;;;;;;4937135;29;20210;-87
2021/01/17 10:28:20;;;;;;;10.93;5.80;;;6.50;99.90;;;;;;4939334;29;20228;-87
2021/01/17 10:30:57;;;;;;;9.13;5.20;;;6.50;99.90;;;;;;4921400;29;20892;-86
2021/01/17 10:33:32;;;;;;;13.27;6.60;;;6.40;99.90;;;;;;4938165;29;20402;-87
2021/01/17 10:36:02;;;;;;;9.30;5.33;;;6.40;99.90;;;;;;4920344;29;20207;-86
2021/01/17 10:38:34;;;;;;;7.90;5.47;;;6.50;99.90;;;;;;4936308;29;20229;-87
2021/01/17 10:41:07;;;;;;;14.27;6.13;;;6.50;99.90;;;;;;4934949;29;20208;-88
2021/01/17 10:43:39;;;;;;;9.73;4.70;;;6.50;99.90;;;;;;4947245;29;20192;-87
2021/01/17 10:46:13;;;;;;;10.40;4.37;;;6.50;99.90;;;;;;4955911;28;20203;-87
2021/01/17 10:48:50;;;;;;;9.13;5.07;;;6.50;99.90;;;;;;4935338;28;20209;-88
2021/01/17 10:51:26;;;;;;;9.57;5.00;;;6.50;99.90;;;;;;4951178;29;20227;-88
2021/01/17 10:54:00;;;;;;;7.87;4.37;;;6.50;99.90;;;;;;4949877;29;20200;-87
2021/01/17 10:56:31;;;;;;;18.50;7.50;;;6.50;99.90;;;;;;4937861;29;20205;-87
2021/01/17 10:59:02;;;;;;;6.43;3.90;;;6.50;99.90;;;;;;4936029;29;20673;-85
2021/01/17 11:01:33;;;;;;;6.83;4.00;;;6.50;99.90;;;;;;4930506;29;20335;-86
2021/01/17 11:04:06;;;;;;;4.63;3.60;;;6.50;99.90;;;;;;4928930;29;20626;-87
2021/01/17 11:06:37;;;;;;;4.90;3.03;;;6.50;99.90;;;;;;4933948;29;20232;-87
2021/01/17 11:09:14;;;;;;;4.70;3.43;;;6.40;99.90;;;;;;4936135;29;20293;-86
2021/01/17 11:11:46;;;;;;;5.40;3.30;;;6.50;99.90;;;;;;4937365;29;20240;-86
2021/01/17 11:14:25;;;;;;;5.10;2.80;;;6.50;99.90;;;;;;4932374;29;20215;-87
2021/01/17 11:16:56;;;;;;;4.57;2.97;;;6.50;99.90;;;;;;4930093;29;20203;-87
2021/01/17 11:19:37;;;;;;;3.90;2.90;;;6.40;99.90;;;;;;4934802;29;20208;-87
2021/01/17 11:22:09;;;;;;;6.43;3.53;;;6.40;99.90;;;;;;4936168;29;20629;-87
2021/01/17 11:24:42;;;;;;;4.37;2.80;;;6.50;99.90;;;;;;4932978;29;20228;-87
2021/01/17 11:27:15;;;;;;;4.60;3.00;;;6.50;99.90;;;;;;4934561;29;20284;-87
2021/01/17 11:29:48;;;;;;;13.93;5.87;;;6.50;99.90;;;;;;4931338;29;20632;-87
2021/01/17 11:32:31;;;;;;;5.40;3.60;;;6.40;99.90;;;;;;4918701;29;20232;-87
2021/01/17 11:35:03;;;;;;;5.67;3.20;;;6.40;99.90;;;;;;4935232;29;20282;-86
2021/01/17 11:37:36;;;;;;;4.80;2.80;;;6.50;99.90;;;;;;4934936;29;20219;-88
2021/01/17 11:40:11;;;;;;;5.20;2.80;;;6.50;99.90;;;;;;4935535;29;20248;-87
2021/01/17 11:42:42;;;;;;;6.90;3.50;;;6.50;99.90;;;;;;4934230;29;20289;-86
2021/01/17 11:45:22;;;;;;;5.80;3.13;;;6.50;99.90;;;;;;4937219;29;20223;-87
2021/01/17 11:48:00;;;;;;;9.53;2.90;;;6.50;99.90;;;;;;4935714;29;20208;-87
2021/01/17 11:50:33;;;;;;;5.73;3.23;;;6.50;99.90;;;;;;4933225;29;20250;-87
2021/01/17 11:53:04;;;;;;;5.07;2.80;;;6.50;99.90;;;;;;4935534;29;20208;-86
2021/01/17 11:55:35;;;;;;;6.63;2.80;;;6.60;99.90;;;;;;4935262;29;20212;-87
2021/01/17 11:58:14;;;;;;;6.97;3.00;;;6.60;99.90;;;;;;4934903;29;20297;-87
2021/01/17 12:00:50;;;;;;;5.10;2.53;;;6.60;99.90;;;;;;4935785;29;20633;-87
2021/01/17 12:03:29;;;;;;;6.43;3.70;;;6.60;99.90;;;;;;4931877;29;20215;-88
2021/01/17 12:06:10;;;;;;;7.27;2.97;;;6.50;99.90;;;;;;4936151;29;20271;-89
2021/01/17 12:09:00;;;;;;;6.63;3.57;;;6.30;99.90;;;;;;4928015;29;20219;-88
2021/01/17 12:11:39;;;;;;;4.83;3.00;;;6.30;99.90;;;;;;4935415;29;20318;-87
2021/01/17 12:14:13;;;;;;;4.33;2.57;;;6.30;99.90;;;;;;4936905;29;20204;-86
2021/01/17 12:16:44;;;;;;;4.07;2.50;;;6.40;99.90;;;;;;4932010;29;20309;-86
2021/01/17 12:19:18;;;;;;;4.83;2.40;;;6.40;99.90;;;;;;4935135;29;20200;-86
2021/01/17 12:21:54;;;;;;;3.90;2.63;;;6.50;99.90;;;;;;4935476;29;20264;-87
2021/01/17 12:24:25;;;;;;;5.10;2.50;;;6.50;99.90;;;;;;4949203;29;20200;-88
2021/01/17 12:26:57;;;;;;;4.33;2.40;;;6.60;99.90;;;;;;4949928;28;20212;-88
2021/01/17 12:29:28;;;;;;;4.23;2.53;;;6.60;99.90;;;;;;4949028;28;20200;-87
2021/01/17 12:31:58;;;;;;;4.53;2.50;;;6.60;99.90;;;;;;4947959;28;20240;-88
2021/01/17 12:34:29;;;;;;;4.77;2.87;;;6.60;99.90;;;;;;4946677;28;20275;-87
2021/01/17 12:37:02;;;;;;;5.13;2.37;;;6.60;99.90;;;;;;4950040;28;20236;-88
2021/01/17 12:39:32;;;;;;;5.13;2.80;;;6.60;99.90;;;;;;4947441;28;20250;-87
2021/01/17 12:42:04;;;;;;;5.67;3.03;;;6.60;99.90;;;;;;4934392;29;20188;-87
2021/01/17 12:44:34;;;;;;;3.93;2.57;;;6.60;99.90;;;;;;4949201;28;20187;-87
2021/01/17 12:47:07;;;;;;;4.90;2.90;;;6.60;99.90;;;;;;4934535;28;20201;-88
2021/01/17 12:49:39;;;;;;;3.73;2.60;;;6.70;99.90;;;;;;4952124;28;20224;-88
2021/01/17 12:52:11;;;;;;;4.40;2.47;;;6.70;99.90;;;;;;4943080;28;20558;-87
2021/01/17 12:54:43;;;;;;;3.57;2.30;;;6.70;99.90;;;;;;4937521;29;20211;-88
2021/01/17 12:57:14;;;;;;;4.30;2.60;;;6.70;99.90;;;;;;4939192;29;20642;-87
2021/01/17 12:59:46;;;;;;;2.80;2.07;;;6.70;99.90;;;;;;4940332;29;20220;-87
2021/01/17 13:02:17;;;;;;;3.07;2.40;;;6.70;99.90;;;;;;4938172;29;20202;-88
2021/01/17 13:04:48;;;;;;;4.10;2.20;;;6.60;99.90;;;;;;4937303;29;20245;-87
2021/01/17 13:07:20;;;;;;;2.90;2.10;;;6.50;99.90;;;;;;4952596;29;20215;-88
2021/01/17 13:09:51;;;;;;;4.60;2.20;;;6.50;99.90;;;;;;4949157;29;20223;-87
2021/01/17 13:12:23;;;;;;;7.40;2.37;;;6.50;99.90;;;;;;4954615;28;20212;-86
2021/01/17 13:14:53;;;;;;;5.10;2.30;;;6.50;99.90;;;;;;4952011;29;20185;-86
2021/01/17 13:17:23;;;;;;;4.23;2.40;;;6.50;99.90;;;;;;4940752;29;20230;-86
2021/01/17 13:19:54;;;;;;;4.40;2.60;;;6.60;99.90;;;;;;4932329;29;20308;-86
2021/01/17 13:22:31;;;;;;;3.67;2.03;;;6.60;99.90;;;;;;4938700;29;20194;-87
2021/01/17 13:25:02;;;;;;;5.40;1.90;;;6.60;99.90;;;;;;4938483;29;20690;-86
2021/01/17 13:27:36;;;;;;;3.67;1.90;;;6.70;99.90;;;;;;4938154;29;20199;-91
2021/01/17 13:30:11;;;;;;;6.17;2.80;;;6.70;99.90;;;;;;4940391;29;20213;-86
2021/01/17 13:35:14;;;;;;;3.00;1.60;;;6.70;99.90;;;;;;4893626;29;20241;-87
2021/01/17 13:37:50;;;;;;;2.33;1.53;;;6.60;99.90;;;;;;4885502;29;20224;-87
2021/01/17 13:40:21;;;;;;;2.80;1.60;;;6.60;99.90;;;;;;4885953;29;20238;-86
2021/01/17 13:42:53;;;;;;;4.13;1.67;;;6.70;99.90;;;;;;4880982;29;20268;-86
2021/01/17 13:45:25;;;;;;;2.87;2.10;;;6.70;99.90;;;;;;4882435;29;20206;-87
2021/01/17 13:47:56;;;;;;;3.53;1.77;;;6.60;99.90;;;;;;4870729;29;20245;-87
2021/01/17 13:50:27;;;;;;;2.93;2.00;;;6.60;99.90;;;;;;4889497;29;20229;-87
2021/01/17 13:53:00;;;;;;;2.00;1.80;;;6.50;99.90;;;;;;4882212;29;20211;-86
2021/01/17 13:55:31;;;;;;;4.10;1.80;;;6.50;99.90;;;;;;4879745;29;20210;-87
2021/01/17 13:58:03;;;;;;;3.27;1.73;;;6.50;99.90;;;;;;4869844;29;20214;-87
2021/01/17 14:00:34;;;;;;;2.07;1.67;;;6.50;99.90;;;;;;4868501;29;20217;-87
2021/01/17 14:03:06;;;;;;;2.73;1.80;;;6.60;99.90;;;;;;4881124;29;20309;-87
2021/01/17 14:05:37;;;;;;;2.83;1.53;;;6.60;99.90;;;;;;4884637;29;20218;-87
2021/01/17 14:08:10;;;;;;;3.00;2.00;;;6.70;99.90;;;;;;4876009;29;21476;-88
2021/01/17 14:10:41;;;;;;;3.30;1.63;;;6.70;99.90;;;;;;4869936;29;20241;-88
2021/01/17 14:13:11;;;;;;;2.87;2.00;;;6.60;99.90;;;;;;4875872;29;20625;-88
2021/01/17 14:15:42;;;;;;;4.07;1.67;;;6.70;99.90;;;;;;4873069;29;20233;-87
2021/01/17 14:18:13;;;;;;;3.07;1.63;;;6.70;99.90;;;;;;4868527;29;20322;-86
2021/01/17 14:20:44;;;;;;;3.77;1.60;;;6.70;99.90;;;;;;4878137;29;20282;-88
2021/01/17 14:23:16;;;;;;;4.00;2.33;;;6.80;99.90;;;;;;4871281;29;20217;-87
2021/01/17 14:25:47;;;;;;;4.90;2.07;;;6.80;99.90;;;;;;4873118;29;20237;-87
2021/01/17 14:28:18;;;;;;;2.17;1.80;;;6.70;99.90;;;;;;4875793;29;20271;-87
2021/01/17 14:30:49;;;;;;;3.63;2.10;;;6.70;99.90;;;;;;4874415;29;20238;-88
2021/01/17 14:33:20;;;;;;;3.80;2.53;;;6.70;99.90;;;;;;4877633;29;20563;-86
2021/01/17 14:35:51;;;;;;;4.77;2.70;;;6.60;99.90;;;;;;4870656;29;20207;-88
2021/01/17 14:38:23;;;;;;;4.00;2.90;;;6.60;99.90;;;;;;4876119;29;20208;-87
2021/01/17 14:40:54;;;;;;;5.90;2.43;;;6.70;99.90;;;;;;4871566;29;20208;-87
2021/01/17 14:43:24;;;;;;;7.10;2.90;;;6.70;99.90;;;;;;4867670;29;20235;-87
2021/01/17 14:45:55;;;;;;;3.33;1.87;;;6.80;99.90;;;;;;4869499;29;20558;-86
2021/01/17 14:48:26;;;;;;;3.63;2.07;;;6.80;99.90;;;;;;4873177;29;20236;-86
2021/01/17 14:50:57;;;;;;;3.37;1.87;;;6.80;99.90;;;;;;4867112;29;20235;-87
2021/01/17 14:53:29;;;;;;;3.30;1.60;;;6.90;99.90;;;;;;4876304;29;20270;-88
2021/01/17 14:56:00;;;;;;;3.73;1.60;;;6.90;99.90;;;;;;4885695;29;20309;-87
2021/01/17 14:58:30;;;;;;;1.73;1.33;;;6.90;99.90;;;;;;4895170;29;20271;-87
2021/01/17 15:01:02;;;;;;;3.13;1.47;;;6.90;99.90;;;;;;4894649;29;20206;-87
2021/01/17 15:03:33;;;;;;;1.93;1.43;;;6.90;99.90;;;;;;4890351;29;20272;-87
2021/01/17 15:06:04;;;;;;;2.17;1.57;;;6.90;99.90;;;;;;4895619;29;20221;-87